createdAt,value
2019-03-03T00:00:18.714Z,7.40
2019-03-03T00:02:46.830Z,7.40
2019-03-03T00:05:15.106Z,7.30
2019-03-03T00:07:43.326Z,7.40
2019-03-03T00:10:12.046Z,7.40
2019-03-03T00:12:40.254Z,7.30
2019-03-03T00:15:08.638Z,7.30
2019-03-03T00:17:36.842Z,7.30
2019-03-03T00:20:05.710Z,7.30
2019-03-03T00:22:34.056Z,7.20
2019-03-03T00:25:02.811Z,7.10
2019-03-03T00:27:30.915Z,7.10
2019-03-03T00:29:59.075Z,7.10
2019-03-03T00:32:38.077Z,7.00
2019-03-03T00:35:08.843Z,7.00
2019-03-03T00:38:10.202Z,7.00
2019-03-03T00:41:15.144Z,6.90
2019-03-03T00:44:17.210Z,6.70
2019-03-03T00:47:03.299Z,6.60
2019-03-03T00:49:58.025Z,6.70
2019-03-03T00:57:11.158Z,6.50
2019-03-03T01:00:02.866Z,6.60
2019-03-03T01:03:00.118Z,6.70
2019-03-03T01:05:37.750Z,6.80
2019-03-03T01:08:23.601Z,6.90
2019-03-03T01:11:11.755Z,6.90
2019-03-03T01:13:48.892Z,6.90
2019-03-03T01:16:37.209Z,6.90
2019-03-03T01:19:27.741Z,6.80
2019-03-03T01:22:11.986Z,6.60
2019-03-03T01:24:58.139Z,6.40
2019-03-03T01:27:27.126Z,6.30
2019-03-03T01:29:55.809Z,6.30
2019-03-03T01:32:34.323Z,6.20
2019-03-03T01:35:02.446Z,6.20
2019-03-03T01:37:37.707Z,6.10
2019-03-03T01:40:07.271Z,6.10
2019-03-03T01:43:17.967Z,5.80
2019-03-03T01:45:55.717Z,6.10
2019-03-03T01:48:28.300Z,6.10
2019-03-03T01:50:58.952Z,6.00
2019-03-03T01:53:28.414Z,5.90
2019-03-03T01:59:28.834Z,5.80
2019-03-03T02:01:59.658Z,5.90
2019-03-03T02:04:27.767Z,6.00
2019-03-03T02:06:56.334Z,6.20
2019-03-03T02:09:25.283Z,6.20
2019-03-03T02:11:53.394Z,6.10
2019-03-03T02:14:21.494Z,6.10
2019-03-03T02:16:49.847Z,6.10
2019-03-03T02:19:18.430Z,6.00
2019-03-03T02:21:50.631Z,6.00
2019-03-03T02:24:34.797Z,6.10
2019-03-03T02:27:05.607Z,6.00
2019-03-03T02:29:33.788Z,5.90
2019-03-03T02:32:02.028Z,5.90
2019-03-03T02:34:31.633Z,5.90
2019-03-03T02:36:59.842Z,5.90
2019-03-03T02:39:28.071Z,5.90
2019-03-03T02:41:57.218Z,5.80
2019-03-03T02:44:26.071Z,5.70
2019-03-03T02:47:15.258Z,5.70
2019-03-03T02:49:49.319Z,5.60
2019-03-03T02:52:18.365Z,5.50
2019-03-03T02:54:47.632Z,5.40
2019-03-03T02:57:18.477Z,5.50
2019-03-03T02:59:51.995Z,5.50
2019-03-03T03:02:54.490Z,5.60
2019-03-03T03:05:44.169Z,5.70
2019-03-03T03:08:35.266Z,5.70
2019-03-03T03:11:25.725Z,5.70
2019-03-03T03:14:04.624Z,5.70
2019-03-03T03:17:05.301Z,5.60
2019-03-03T03:20:48.033Z,5.50
2019-03-03T03:23:22.139Z,5.30
2019-03-03T03:26:08.512Z,5.30
2019-03-03T03:28:45.666Z,5.30
2019-03-03T03:31:48.739Z,5.30
2019-03-03T03:34:24.854Z,5.30
2019-03-03T03:37:21.445Z,5.20
2019-03-03T03:40:22.412Z,5.20
2019-03-03T03:42:58.860Z,5.20
2019-03-03T03:45:47.535Z,5.20
2019-03-03T03:48:27.586Z,5.10
2019-03-03T03:51:42.634Z,5.00
2019-03-03T03:54:50.427Z,4.90
2019-03-03T03:57:37.150Z,4.90
2019-03-03T04:00:25.509Z,4.90
2019-03-03T04:03:34.655Z,4.80
2019-03-03T04:06:46.417Z,4.90
2019-03-03T04:09:37.713Z,4.80
2019-03-03T04:12:40.680Z,4.80
2019-03-03T04:15:43.539Z,4.80
2019-03-03T04:22:08.377Z,4.60
2019-03-03T04:25:17.582Z,4.50
2019-03-03T04:28:21.909Z,4.50
2019-03-03T04:31:05.061Z,4.50
2019-03-03T04:34:01.338Z,4.40
2019-03-03T04:36:53.279Z,4.50
2019-03-03T04:39:40.949Z,4.40
2019-03-03T04:42:35.896Z,4.40
2019-03-03T04:45:31.884Z,4.40
2019-03-03T04:51:53.240Z,4.40
2019-03-03T04:54:46.698Z,4.40
2019-03-03T04:57:37.414Z,4.30
2019-03-03T05:00:27.351Z,4.40
2019-03-03T05:03:17.293Z,4.40
2019-03-03T05:06:08.188Z,4.30
2019-03-03T05:08:46.254Z,4.30
2019-03-03T05:12:13.795Z,4.20
2019-03-03T05:14:49.236Z,4.20
2019-03-03T05:17:39.298Z,4.10
2019-03-03T05:20:13.737Z,4.10
2019-03-03T05:22:54.763Z,4.00
2019-03-03T05:25:23.779Z,3.90
2019-03-03T05:28:13.191Z,3.90
2019-03-03T05:30:56.199Z,3.90
2019-03-03T05:33:25.593Z,3.90
2019-03-03T05:35:57.634Z,3.90
2019-03-03T05:38:48.306Z,3.90
2019-03-03T05:41:26.395Z,3.90
2019-03-03T05:43:55.762Z,4.00
2019-03-03T05:46:23.933Z,3.90
2019-03-03T05:48:52.261Z,3.90
2019-03-03T05:51:20.887Z,3.80
2019-03-03T05:53:49.001Z,3.70
2019-03-03T05:56:19.410Z,3.60
2019-03-03T05:58:51.773Z,3.60
2019-03-03T06:01:20.131Z,3.60
2019-03-03T06:04:13.733Z,3.70
2019-03-03T06:06:42.270Z,3.70
2019-03-03T06:09:14.202Z,3.70
2019-03-03T06:12:07.265Z,3.80
2019-03-03T06:14:46.153Z,3.90
2019-03-03T06:17:14.435Z,3.80
2019-03-03T06:19:42.603Z,3.80
2019-03-03T06:22:12.451Z,3.90
2019-03-03T06:24:43.644Z,3.90
2019-03-03T06:27:13.179Z,3.90
2019-03-03T06:29:41.311Z,3.90
2019-03-03T06:32:09.998Z,4.00
2019-03-03T06:34:38.234Z,4.00
2019-03-03T06:37:25.738Z,3.90
2019-03-03T06:39:54.514Z,4.00
2019-03-03T06:42:25.506Z,3.90
2019-03-03T06:45:01.774Z,3.90
2019-03-03T06:47:54.529Z,3.90
2019-03-03T06:50:23.032Z,3.90
2019-03-03T06:53:24.596Z,4.00
2019-03-03T06:59:15.997Z,4.00
2019-03-03T07:01:44.186Z,4.10
2019-03-03T07:04:12.337Z,4.10
2019-03-03T07:06:40.566Z,4.30
2019-03-03T07:09:08.706Z,4.40
2019-03-03T07:11:36.807Z,4.60
2019-03-03T07:14:05.029Z,4.80
2019-03-03T07:16:33.113Z,4.80
2019-03-03T07:19:01.222Z,5.00
2019-03-03T07:21:29.546Z,5.10
2019-03-03T07:23:57.633Z,5.10
2019-03-03T07:26:25.738Z,5.20
2019-03-03T07:28:54.003Z,5.30
2019-03-03T07:31:22.098Z,5.40
2019-03-03T07:33:53.734Z,5.60
2019-03-03T07:36:22.074Z,5.70
2019-03-03T07:38:50.577Z,5.90
2019-03-03T07:41:18.673Z,6.20
2019-03-03T07:43:46.834Z,6.40
2019-03-03T07:46:15.354Z,6.50
2019-03-03T07:48:43.442Z,6.70
2019-03-03T07:51:12.102Z,6.90
2019-03-03T07:53:40.199Z,7.00
2019-03-03T07:56:08.386Z,7.20
2019-03-03T07:58:36.662Z,7.40
2019-03-03T08:01:04.951Z,7.70
2019-03-03T08:03:33.038Z,7.90
2019-03-03T08:06:01.180Z,8.10
2019-03-03T08:08:29.318Z,8.30
2019-03-03T08:10:57.422Z,8.60
2019-03-03T08:13:25.652Z,8.90
2019-03-03T08:15:53.846Z,9.20
2019-03-03T08:18:21.934Z,9.50
2019-03-03T08:20:50.161Z,9.80
2019-03-03T08:23:18.306Z,10.10
2019-03-03T08:25:46.437Z,10.40
2019-03-03T08:28:14.674Z,10.60
2019-03-03T08:30:43.289Z,10.80
2019-03-03T08:33:11.473Z,11.00
2019-03-03T08:35:39.634Z,11.20
2019-03-03T08:38:07.770Z,11.50
2019-03-03T08:40:35.917Z,11.60
2019-03-03T08:43:22.334Z,11.80
2019-03-03T08:46:27.975Z,12.00
2019-03-03T08:49:01.344Z,12.10
2019-03-03T08:51:46.725Z,12.30
2019-03-03T08:54:52.450Z,12.40
2019-03-03T08:57:46.729Z,12.50
2019-03-03T09:00:39.610Z,12.70
2019-03-03T09:03:42.254Z,12.70
2019-03-03T09:06:18.798Z,12.90
2019-03-03T09:09:09.622Z,13.00
2019-03-03T09:12:15.174Z,13.20
2019-03-03T09:14:49.809Z,13.30
2019-03-03T09:17:33.479Z,13.50
2019-03-03T09:20:29.858Z,13.50
2019-03-03T09:23:29.111Z,13.60
2019-03-03T09:26:22.571Z,13.80
2019-03-03T09:29:14.817Z,13.90
2019-03-03T09:32:01.039Z,14.00
2019-03-03T09:34:48.594Z,14.20
2019-03-03T09:37:31.811Z,14.30
2019-03-03T09:40:20.520Z,14.40
2019-03-03T09:43:08.071Z,14.40
2019-03-03T09:45:51.508Z,14.50
2019-03-03T09:48:38.978Z,14.60
2019-03-03T09:51:35.639Z,14.80
2019-03-03T09:54:29.947Z,14.90
2019-03-03T09:57:16.156Z,14.80
2019-03-03T10:00:18.801Z,14.90
2019-03-03T10:03:00.438Z,14.90
2019-03-03T10:05:53.128Z,15.00
2019-03-03T10:08:32.933Z,15.10
2019-03-03T10:11:23.650Z,15.20
2019-03-03T10:13:59.498Z,15.20
2019-03-03T10:16:48.597Z,15.20
2019-03-03T10:19:25.958Z,15.30
2019-03-03T10:22:00.102Z,15.40
2019-03-03T10:24:50.870Z,15.50
2019-03-03T10:27:28.490Z,15.60
2019-03-03T10:30:25.110Z,15.70
2019-03-03T10:33:11.353Z,15.80
2019-03-03T10:36:10.798Z,16.00
2019-03-03T10:38:54.049Z,16.20
2019-03-03T10:41:53.705Z,16.50
2019-03-03T10:44:53.374Z,16.80
2019-03-03T10:47:52.802Z,17.00
2019-03-03T10:50:55.846Z,17.20
2019-03-03T10:53:46.551Z,17.40
2019-03-03T10:56:46.193Z,17.60
2019-03-03T10:59:32.579Z,17.80
2019-03-03T11:02:24.799Z,18.00
2019-03-03T11:05:11.411Z,18.10
2019-03-03T11:08:01.834Z,18.30
2019-03-03T11:10:58.589Z,18.50
2019-03-03T11:13:47.464Z,18.60
2019-03-03T11:16:40.055Z,18.80
2019-03-03T11:19:14.931Z,18.90
2019-03-03T11:22:09.690Z,19.10
2019-03-03T11:24:56.065Z,19.20
2019-03-03T11:27:46.294Z,19.30
2019-03-03T11:30:39.459Z,19.40
2019-03-03T11:33:26.004Z,19.40
2019-03-03T11:36:29.552Z,19.30
2019-03-03T11:39:18.297Z,19.20
2019-03-03T11:42:26.476Z,19.30
2019-03-03T11:45:31.914Z,19.30
2019-03-03T11:48:05.129Z,19.30
2019-03-03T11:50:55.777Z,19.40
2019-03-03T11:53:57.902Z,19.40
2019-03-03T11:56:36.831Z,19.50
2019-03-03T11:59:33.193Z,19.40
2019-03-03T12:02:33.395Z,19.50
2019-03-03T12:05:22.027Z,19.70
2019-03-03T12:08:24.911Z,19.80
2019-03-03T12:11:18.015Z,20.00
2019-03-03T12:14:15.053Z,20.00
2019-03-03T12:16:56.213Z,19.80
2019-03-03T12:20:05.320Z,19.60
2019-03-03T12:22:51.355Z,19.50
2019-03-03T12:25:42.738Z,19.30
2019-03-03T12:28:45.083Z,19.20
2019-03-03T12:31:33.673Z,19.50
2019-03-03T12:34:12.053Z,19.70
2019-03-03T12:37:05.839Z,19.90
2019-03-03T12:39:52.102Z,20.10
2019-03-03T12:42:45.541Z,20.20
2019-03-03T12:45:26.439Z,20.30
2019-03-03T12:48:35.451Z,20.30
2019-03-03T12:51:29.581Z,20.30
2019-03-03T12:54:21.422Z,20.30
2019-03-03T12:57:22.971Z,20.30
2019-03-03T13:00:32.722Z,20.30
2019-03-03T13:03:23.622Z,20.40
2019-03-03T13:06:24.082Z,20.40
2019-03-03T13:09:18.438Z,20.40
2019-03-03T13:11:57.718Z,20.50
2019-03-03T13:14:49.714Z,20.50
2019-03-03T13:17:48.568Z,20.20
2019-03-03T13:20:24.724Z,20.60
2019-03-03T13:23:17.372Z,20.60
2019-03-03T13:26:05.522Z,20.50
2019-03-03T13:28:49.302Z,19.80
2019-03-03T13:31:35.238Z,20.20
2019-03-03T13:34:31.544Z,20.00
2019-03-03T13:37:08.299Z,19.90
2019-03-03T13:40:07.540Z,19.70
2019-03-03T13:42:42.322Z,19.60
2019-03-03T13:45:11.858Z,19.70
2019-03-03T13:47:41.098Z,19.70
2019-03-03T13:50:22.627Z,19.70
2019-03-03T13:53:01.677Z,19.70
2019-03-03T13:55:36.674Z,19.80
2019-03-03T13:58:11.389Z,19.80
2019-03-03T14:00:48.747Z,19.80
2019-03-03T14:03:23.536Z,19.70
2019-03-03T14:06:14.444Z,19.80
2019-03-03T14:08:42.975Z,19.80
2019-03-03T14:11:29.455Z,19.90
2019-03-03T14:14:01.789Z,19.90
2019-03-03T14:16:32.949Z,19.90
2019-03-03T14:19:08.369Z,19.80
2019-03-03T14:21:56.654Z,19.80
2019-03-03T14:24:28.089Z,19.80
2019-03-03T14:27:19.897Z,19.70
2019-03-03T14:29:56.049Z,19.70
2019-03-03T14:32:22.217Z,19.60
2019-03-03T14:34:55.154Z,19.50
2019-03-03T14:37:23.809Z,19.50
2019-03-03T14:40:17.578Z,19.30
2019-03-03T14:42:57.127Z,19.10
2019-03-03T14:45:46.270Z,18.90
2019-03-03T14:48:36.814Z,18.90
2019-03-03T14:51:16.154Z,18.90
2019-03-03T14:53:47.081Z,18.90
2019-03-03T14:56:18.597Z,18.90
2019-03-03T14:58:48.283Z,18.90
2019-03-03T15:01:16.626Z,18.90
2019-03-03T15:03:45.208Z,18.90
2019-03-03T15:06:13.464Z,18.90
2019-03-03T15:08:41.653Z,18.90
2019-03-03T15:11:12.415Z,18.90
2019-03-03T15:13:40.702Z,18.90
2019-03-03T15:16:08.978Z,18.90
2019-03-03T15:18:37.934Z,18.80
2019-03-03T15:21:06.634Z,18.80
2019-03-03T15:23:35.019Z,18.80
2019-03-03T15:26:03.347Z,18.70
2019-03-03T15:28:31.574Z,18.70
2019-03-03T15:30:59.992Z,18.70
2019-03-03T15:33:28.218Z,18.60
2019-03-03T15:35:56.572Z,18.50
2019-03-03T15:38:24.983Z,18.40
2019-03-03T15:40:56.306Z,18.30
2019-03-03T15:43:38.388Z,18.20
2019-03-03T15:46:16.853Z,18.20
2019-03-03T15:48:59.197Z,18.20
2019-03-03T15:51:31.575Z,18.10
2019-03-03T15:54:04.632Z,17.60
2019-03-03T15:57:03.816Z,17.90
2019-03-03T15:59:56.188Z,17.80
2019-03-03T16:02:40.498Z,17.70
2019-03-03T16:05:10.310Z,17.60
2019-03-03T16:08:01.176Z,17.50
2019-03-03T16:10:38.000Z,17.50
2019-03-03T16:13:49.079Z,17.30
2019-03-03T16:16:24.224Z,17.20
2019-03-03T16:18:56.820Z,17.10
2019-03-03T16:21:30.505Z,17.00
2019-03-03T16:24:08.643Z,16.90
2019-03-03T16:26:37.114Z,17.00
2019-03-03T16:29:23.470Z,17.00
2019-03-03T16:31:52.148Z,17.10
2019-03-03T16:34:24.042Z,17.00
2019-03-03T16:36:57.969Z,17.00
2019-03-03T16:39:52.485Z,16.80
2019-03-03T16:42:52.122Z,16.80
2019-03-03T16:45:46.114Z,16.60
2019-03-03T16:48:23.366Z,16.50
2019-03-03T16:50:58.604Z,16.40
2019-03-03T16:53:30.567Z,16.30
2019-03-03T16:56:02.032Z,16.30
2019-03-03T16:58:30.308Z,16.20
2019-03-03T17:00:58.446Z,16.10
2019-03-03T17:03:26.533Z,16.10
2019-03-03T17:05:54.710Z,16.00
2019-03-03T17:08:22.801Z,15.90
2019-03-03T17:10:51.322Z,15.80
2019-03-03T17:13:21.324Z,15.80
2019-03-03T17:15:49.441Z,15.70
2019-03-03T17:18:17.602Z,15.70
2019-03-03T17:20:45.856Z,15.60
2019-03-03T17:23:15.122Z,15.50
2019-03-03T17:25:43.247Z,15.50
2019-03-03T17:28:11.398Z,15.40
2019-03-03T17:30:39.695Z,15.40
2019-03-03T17:33:08.157Z,15.30
2019-03-03T17:35:36.490Z,15.20
2019-03-03T17:38:04.832Z,15.10
2019-03-03T17:40:33.397Z,15.00
2019-03-03T17:43:01.877Z,15.00
2019-03-03T17:45:29.997Z,14.90
2019-03-03T17:47:58.289Z,14.90
2019-03-03T17:50:26.579Z,14.80
2019-03-03T17:52:54.885Z,14.70
2019-03-03T17:55:23.098Z,14.70
2019-03-03T17:57:51.827Z,14.60
2019-03-03T18:00:22.283Z,14.50
2019-03-03T18:02:50.492Z,14.40
2019-03-03T18:05:19.756Z,14.40
2019-03-03T18:07:48.123Z,14.30
2019-03-03T18:10:16.642Z,14.20
2019-03-03T18:12:45.106Z,14.10
2019-03-03T18:15:13.447Z,13.90
2019-03-03T18:17:41.636Z,14.00
2019-03-03T18:20:11.022Z,13.90
2019-03-03T18:22:39.673Z,13.80
2019-03-03T18:25:08.471Z,13.60
2019-03-03T18:27:36.831Z,13.50
2019-03-03T18:30:06.226Z,13.40
2019-03-03T18:32:34.685Z,13.40
2019-03-03T18:35:03.443Z,13.20
2019-03-03T18:37:31.531Z,13.00
2019-03-03T18:39:59.843Z,12.80
2019-03-03T18:42:28.102Z,12.60
2019-03-03T18:44:56.195Z,12.50
2019-03-03T18:47:24.390Z,12.30
2019-03-03T18:49:52.619Z,12.10
2019-03-03T18:52:20.806Z,11.90
2019-03-03T18:54:49.365Z,11.60
2019-03-03T18:57:17.939Z,11.50
2019-03-03T18:59:46.038Z,11.50
2019-03-03T19:02:15.406Z,11.50
2019-03-03T19:04:44.192Z,11.40
2019-03-03T19:07:12.393Z,11.30
2019-03-03T19:09:42.550Z,11.20
2019-03-03T19:12:11.322Z,11.00
2019-03-03T19:14:39.411Z,10.90
2019-03-03T19:17:07.602Z,10.90
2019-03-03T19:19:35.795Z,10.80
2019-03-03T19:22:03.878Z,10.70
2019-03-03T19:24:31.975Z,10.70
2019-03-03T19:27:00.146Z,10.70
2019-03-03T19:29:28.346Z,10.60
2019-03-03T19:31:57.089Z,10.50
2019-03-03T19:34:25.533Z,10.50
2019-03-03T19:36:53.618Z,10.50
2019-03-03T19:39:22.220Z,10.50
2019-03-03T19:41:50.385Z,10.50
2019-03-03T19:44:29.782Z,10.60
2019-03-03T19:46:58.214Z,10.70
2019-03-03T19:49:26.456Z,10.80
2019-03-03T19:51:54.689Z,10.90
2019-03-03T19:54:27.271Z,11.00
2019-03-03T19:57:06.671Z,11.00
2019-03-03T19:59:36.595Z,11.00
2019-03-03T20:02:06.641Z,11.00
2019-03-03T20:04:40.329Z,11.00
2019-03-03T20:07:08.755Z,11.10
2019-03-03T20:09:36.958Z,11.10
2019-03-03T20:12:06.635Z,11.10
2019-03-03T20:14:35.306Z,11.10
2019-03-03T20:17:03.659Z,11.10
2019-03-03T20:19:31.754Z,11.20
2019-03-03T20:22:01.523Z,11.20
2019-03-03T20:24:29.802Z,11.10
2019-03-03T20:26:59.339Z,11.30
2019-03-03T20:29:27.520Z,11.40
2019-03-03T20:31:55.629Z,11.50
2019-03-03T20:34:28.399Z,11.60
2019-03-03T20:36:56.559Z,11.60
2019-03-03T20:39:26.858Z,11.40
2019-03-03T20:41:55.478Z,11.70
2019-03-03T20:44:23.679Z,11.80
2019-03-03T20:46:51.778Z,11.80
2019-03-03T20:49:19.921Z,11.90
2019-03-03T20:51:48.619Z,12.00
2019-03-03T20:54:17.121Z,12.10
2019-03-03T20:56:45.366Z,12.10
2019-03-03T20:59:13.611Z,12.10
2019-03-03T21:01:41.878Z,12.10
2019-03-03T21:04:09.999Z,12.10
2019-03-03T21:06:38.285Z,12.10
2019-03-03T21:09:07.715Z,12.20
2019-03-03T21:11:36.294Z,12.10
2019-03-03T21:14:04.549Z,12.00
2019-03-03T21:16:32.761Z,12.10
2019-03-03T21:19:01.027Z,11.80
2019-03-03T21:21:29.190Z,12.00
2019-03-03T21:23:57.866Z,12.00
2019-03-03T21:26:26.063Z,12.00
2019-03-03T21:28:54.310Z,12.10
2019-03-03T21:31:23.329Z,12.10
2019-03-03T21:33:51.858Z,12.20
2019-03-03T21:36:20.028Z,12.30
2019-03-03T21:38:48.231Z,12.30
2019-03-03T21:41:16.803Z,12.40
2019-03-03T21:43:55.441Z,12.40
2019-03-03T21:46:23.655Z,12.30
2019-03-03T21:48:52.630Z,12.40
2019-03-03T21:51:21.391Z,12.40
2019-03-03T21:53:49.869Z,12.40
2019-03-03T21:56:19.438Z,12.40
2019-03-03T21:58:47.662Z,12.40
2019-03-03T22:01:15.776Z,12.40
2019-03-03T22:03:43.875Z,12.30
2019-03-03T22:06:12.099Z,12.40
2019-03-03T22:08:40.202Z,12.40
2019-03-03T22:11:08.319Z,12.40
2019-03-03T22:13:37.208Z,12.40
2019-03-03T22:16:05.506Z,12.40
2019-03-03T22:18:33.661Z,12.40
2019-03-03T22:21:01.894Z,12.40
2019-03-03T22:23:30.325Z,12.40
2019-03-03T22:25:58.615Z,12.30
2019-03-03T22:28:26.871Z,12.40
2019-03-03T22:30:54.980Z,12.40
2019-03-03T22:33:23.431Z,12.40
2019-03-03T22:35:51.740Z,12.40
2019-03-03T22:38:22.852Z,12.50
2019-03-03T22:40:52.135Z,12.60
2019-03-03T22:43:20.373Z,12.60
2019-03-03T22:45:48.566Z,12.60
2019-03-03T22:48:16.901Z,12.60
2019-03-03T22:50:45.135Z,12.60
2019-03-03T22:53:13.247Z,12.50
2019-03-03T22:55:41.466Z,12.50
2019-03-03T22:58:10.314Z,12.50
2019-03-03T23:01:04.302Z,12.50
2019-03-03T23:03:45.514Z,12.50
2019-03-03T23:06:35.885Z,12.50
2019-03-03T23:09:51.471Z,12.50
2019-03-03T23:12:44.225Z,12.50
2019-03-03T23:16:08.958Z,12.50
2019-03-03T23:19:26.219Z,12.50
2019-03-03T23:22:42.380Z,12.50
2019-03-03T23:25:44.195Z,12.50
2019-03-03T23:28:12.374Z,12.40
2019-03-03T23:30:40.597Z,12.50
2019-03-03T23:33:08.695Z,12.40
2019-03-03T23:35:36.940Z,12.40
2019-03-03T23:38:05.257Z,12.40
2019-03-03T23:40:33.459Z,12.40
2019-03-03T23:43:02.011Z,12.40
2019-03-03T23:45:30.168Z,12.40
2019-03-03T23:47:58.267Z,12.50
2019-03-03T23:50:26.605Z,12.40
2019-03-03T23:52:54.895Z,12.40
2019-03-03T23:55:23.011Z,12.40
2019-03-03T23:57:51.206Z,12.30
